sensor_id;sensor_type;location;lat;lon;timestamp;P1;durP1;ratioP1;P2;durP2;ratioP2
38457;SDS011;24239;48.058;10.486;2024-03-02T00:02:31;17.27;;;11.18;;
38457;SDS011;24239;48.058;10.486;2024-03-02T00:05:18;15.85;;;10.98;;
38457;SDS011;24239;48.058;10.486;2024-03-02T00:08:05;17.23;;;11.32;;
38457;SDS011;24239;48.058;10.486;2024-03-02T00:10:57;17.95;;;11.40;;
38457;SDS011;24239;48.058;10.486;2024-03-02T00:13:44;18.55;;;11.23;;
38457;SDS011;24239;48.058;10.486;2024-03-02T00:16:34;16.98;;;11.18;;
38457;SDS011;24239;48.058;10.486;2024-03-02T00:19:21;18.40;;;12.20;;
38457;SDS011;24239;48.058;10.486;2024-03-02T00:22:09;18.25;;;11.27;;
38457;SDS011;24239;48.058;10.486;2024-03-02T00:24:55;14.80;;;10.23;;
38457;SDS011;24239;48.058;10.486;2024-03-02T00:27:41;17.50;;;11.30;;
38457;SDS011;24239;48.058;10.486;2024-03-02T00:36:25;18.58;;;11.02;;
38457;SDS011;24239;48.058;10.486;2024-03-02T00:39:12;17.67;;;11.20;;
38457;SDS011;24239;48.058;10.486;2024-03-02T00:41:59;14.85;;;10.07;;
38457;SDS011;24239;48.058;10.486;2024-03-02T00:44:44;19.67;;;11.38;;
38457;SDS011;24239;48.058;10.486;2024-03-02T00:47:32;18.90;;;10.48;;
38457;SDS011;24239;48.058;10.486;2024-03-02T00:50:23;18.00;;;11.53;;
38457;SDS011;24239;48.058;10.486;2024-03-02T00:53:10;16.33;;;10.60;;
38457;SDS011;24239;48.058;10.486;2024-03-02T00:55:56;17.40;;;10.63;;
38457;SDS011;24239;48.058;10.486;2024-03-02T00:58:42;16.75;;;10.10;;
38457;SDS011;24239;48.058;10.486;2024-03-02T01:01:28;14.52;;;9.82;;
38457;SDS011;24239;48.058;10.486;2024-03-02T01:04:13;14.48;;;10.10;;
38457;SDS011;24239;48.058;10.486;2024-03-02T01:06:59;15.10;;;9.82;;
38457;SDS011;24239;48.058;10.486;2024-03-02T01:09:45;17.20;;;10.60;;
38457;SDS011;24239;48.058;10.486;2024-03-02T01:12:31;15.23;;;9.90;;
38457;SDS011;24239;48.058;10.486;2024-03-02T01:15:16;13.80;;;9.70;;
38457;SDS011;24239;48.058;10.486;2024-03-02T01:18:02;15.48;;;9.82;;
38457;SDS011;24239;48.058;10.486;2024-03-02T01:20:48;15.57;;;10.10;;
38457;SDS011;24239;48.058;10.486;2024-03-02T01:23:36;14.73;;;9.35;;
38457;SDS011;24239;48.058;10.486;2024-03-02T01:26:23;14.82;;;10.13;;
38457;SDS011;24239;48.058;10.486;2024-03-02T01:29:08;13.23;;;8.80;;
38457;SDS011;24239;48.058;10.486;2024-03-02T01:31:54;12.13;;;8.57;;
38457;SDS011;24239;48.058;10.486;2024-03-02T01:34:40;13.68;;;9.30;;
38457;SDS011;24239;48.058;10.486;2024-03-02T01:37:25;17.00;;;9.50;;
38457;SDS011;24239;48.058;10.486;2024-03-02T01:40:11;12.40;;;8.88;;
38457;SDS011;24239;48.058;10.486;2024-03-02T01:42:57;12.20;;;9.00;;
38457;SDS011;24239;48.058;10.486;2024-03-02T01:45:44;13.18;;;9.32;;
38457;SDS011;24239;48.058;10.486;2024-03-02T01:48:30;14.13;;;8.93;;
38457;SDS011;24239;48.058;10.486;2024-03-02T01:51:15;11.95;;;8.90;;
38457;SDS011;24239;48.058;10.486;2024-03-02T01:54:01;13.30;;;8.68;;
38457;SDS011;24239;48.058;10.486;2024-03-02T01:56:47;14.95;;;9.07;;
38457;SDS011;24239;48.058;10.486;2024-03-02T01:59:33;12.98;;;8.90;;
38457;SDS011;24239;48.058;10.486;2024-03-02T02:02:18;11.95;;;9.15;;
38457;SDS011;24239;48.058;10.486;2024-03-02T02:05:05;13.15;;;8.43;;
38457;SDS011;24239;48.058;10.486;2024-03-02T02:07:51;12.20;;;8.70;;
38457;SDS011;24239;48.058;10.486;2024-03-02T02:10:37;13.55;;;9.50;;
38457;SDS011;24239;48.058;10.486;2024-03-02T02:13:22;13.02;;;9.20;;
38457;SDS011;24239;48.058;10.486;2024-03-02T02:16:08;10.82;;;8.57;;
38457;SDS011;24239;48.058;10.486;2024-03-02T02:18:54;11.82;;;9.15;;
38457;SDS011;24239;48.058;10.486;2024-03-02T02:21:43;14.10;;;9.10;;
38457;SDS011;24239;48.058;10.486;2024-03-02T02:24:29;11.45;;;8.63;;
38457;SDS011;24239;48.058;10.486;2024-03-02T02:27:14;11.32;;;8.25;;
38457;SDS011;24239;48.058;10.486;2024-03-02T02:30:00;12.10;;;8.45;;
38457;SDS011;24239;48.058;10.486;2024-03-02T02:32:48;13.05;;;9.25;;
38457;SDS011;24239;48.058;10.486;2024-03-02T02:35:34;13.52;;;9.77;;
38457;SDS011;24239;48.058;10.486;2024-03-02T02:38:20;12.40;;;8.85;;
38457;SDS011;24239;48.058;10.486;2024-03-02T02:41:06;12.18;;;8.90;;
38457;SDS011;24239;48.058;10.486;2024-03-02T02:43:52;12.10;;;8.63;;
38457;SDS011;24239;48.058;10.486;2024-03-02T02:46:38;10.85;;;8.38;;
38457;SDS011;24239;48.058;10.486;2024-03-02T02:49:24;14.02;;;9.80;;
38457;SDS011;24239;48.058;10.486;2024-03-02T02:52:10;12.82;;;9.00;;
38457;SDS011;24239;48.058;10.486;2024-03-02T02:54:56;15.13;;;9.40;;
38457;SDS011;24239;48.058;10.486;2024-03-02T02:57:41;11.73;;;8.30;;
38457;SDS011;24239;48.058;10.486;2024-03-02T03:00:28;11.85;;;8.68;;
38457;SDS011;24239;48.058;10.486;2024-03-02T03:03:13;11.05;;;8.00;;
38457;SDS011;24239;48.058;10.486;2024-03-02T03:05:59;11.85;;;8.38;;
38457;SDS011;24239;48.058;10.486;2024-03-02T03:08:45;10.98;;;8.75;;
38457;SDS011;24239;48.058;10.486;2024-03-02T03:11:31;12.38;;;9.13;;
38457;SDS011;24239;48.058;10.486;2024-03-02T03:14:17;10.45;;;8.48;;
38457;SDS011;24239;48.058;10.486;2024-03-02T03:17:02;11.60;;;8.35;;
38457;SDS011;24239;48.058;10.486;2024-03-02T03:19:48;11.75;;;9.07;;
38457;SDS011;24239;48.058;10.486;2024-03-02T03:22:35;11.40;;;8.02;;
38457;SDS011;24239;48.058;10.486;2024-03-02T03:25:21;10.82;;;7.88;;
38457;SDS011;24239;48.058;10.486;2024-03-02T03:28:07;12.85;;;9.15;;
38457;SDS011;24239;48.058;10.486;2024-03-02T03:30:55;12.68;;;8.88;;
38457;SDS011;24239;48.058;10.486;2024-03-02T03:33:40;12.35;;;9.10;;
38457;SDS011;24239;48.058;10.486;2024-03-02T03:36:26;11.75;;;8.75;;
38457;SDS011;24239;48.058;10.486;2024-03-02T03:39:12;14.23;;;9.55;;
38457;SDS011;24239;48.058;10.486;2024-03-02T03:41:58;13.25;;;9.48;;
38457;SDS011;24239;48.058;10.486;2024-03-02T03:44:46;13.18;;;8.70;;
38457;SDS011;24239;48.058;10.486;2024-03-02T03:47:31;16.77;;;10.40;;
38457;SDS011;24239;48.058;10.486;2024-03-02T03:50:17;12.07;;;8.63;;
38457;SDS011;24239;48.058;10.486;2024-03-02T03:53:03;15.88;;;9.77;;
38457;SDS011;24239;48.058;10.486;2024-03-02T03:55:49;13.73;;;9.57;;
38457;SDS011;24239;48.058;10.486;2024-03-02T03:58:35;14.38;;;10.27;;
38457;SDS011;24239;48.058;10.486;2024-03-02T04:01:20;15.27;;;9.88;;
38457;SDS011;24239;48.058;10.486;2024-03-02T04:04:07;12.60;;;9.15;;
38457;SDS011;24239;48.058;10.486;2024-03-02T04:06:53;14.45;;;9.52;;
38457;SDS011;24239;48.058;10.486;2024-03-02T04:09:39;12.43;;;9.18;;
38457;SDS011;24239;48.058;10.486;2024-03-02T04:12:25;11.98;;;8.68;;
38457;SDS011;24239;48.058;10.486;2024-03-02T04:15:11;11.73;;;8.88;;
38457;SDS011;24239;48.058;10.486;2024-03-02T04:17:56;14.45;;;9.32;;
38457;SDS011;24239;48.058;10.486;2024-03-02T04:20:42;14.00;;;8.45;;
38457;SDS011;24239;48.058;10.486;2024-03-02T04:23:28;12.10;;;8.23;;
38457;SDS011;24239;48.058;10.486;2024-03-02T04:26:14;11.93;;;8.88;;
38457;SDS011;24239;48.058;10.486;2024-03-02T04:29:00;13.20;;;8.40;;
38457;SDS011;24239;48.058;10.486;2024-03-02T04:31:47;9.45;;;7.72;;
38457;SDS011;24239;48.058;10.486;2024-03-02T04:34:32;14.60;;;9.32;;
38457;SDS011;24239;48.058;10.486;2024-03-02T04:37:18;13.02;;;8.57;;
38457;SDS011;24239;48.058;10.486;2024-03-02T04:40:04;11.90;;;9.30;;
38457;SDS011;24239;48.058;10.486;2024-03-02T04:42:53;12.35;;;8.82;;
38457;SDS011;24239;48.058;10.486;2024-03-02T04:45:39;15.00;;;8.75;;
38457;SDS011;24239;48.058;10.486;2024-03-02T04:48:25;15.18;;;9.68;;
38457;SDS011;24239;48.058;10.486;2024-03-02T04:51:11;12.65;;;9.13;;
38457;SDS011;24239;48.058;10.486;2024-03-02T04:53:57;11.68;;;8.90;;
38457;SDS011;24239;48.058;10.486;2024-03-02T04:56:42;10.80;;;8.10;;
38457;SDS011;24239;48.058;10.486;2024-03-02T04:59:34;12.45;;;8.43;;
38457;SDS011;24239;48.058;10.486;2024-03-02T05:02:20;12.07;;;8.32;;
38457;SDS011;24239;48.058;10.486;2024-03-02T05:05:06;13.50;;;7.93;;
38457;SDS011;24239;48.058;10.486;2024-03-02T05:07:52;12.30;;;8.60;;
38457;SDS011;24239;48.058;10.486;2024-03-02T05:10:38;11.50;;;8.40;;
38457;SDS011;24239;48.058;10.486;2024-03-02T05:13:23;10.63;;;8.23;;
38457;SDS011;24239;48.058;10.486;2024-03-02T05:16:09;12.88;;;8.95;;
38457;SDS011;24239;48.058;10.486;2024-03-02T05:18:55;12.57;;;8.88;;
38457;SDS011;24239;48.058;10.486;2024-03-02T05:21:41;13.65;;;8.52;;
38457;SDS011;24239;48.058;10.486;2024-03-02T05:24:26;14.07;;;9.00;;
38457;SDS011;24239;48.058;10.486;2024-03-02T05:27:15;11.57;;;8.13;;
38457;SDS011;24239;48.058;10.486;2024-03-02T05:30:01;13.85;;;8.77;;
38457;SDS011;24239;48.058;10.486;2024-03-02T05:32:47;14.82;;;8.98;;
38457;SDS011;24239;48.058;10.486;2024-03-02T05:35:32;12.95;;;9.38;;
38457;SDS011;24239;48.058;10.486;2024-03-02T05:38:18;13.43;;;8.38;;
38457;SDS011;24239;48.058;10.486;2024-03-02T05:41:07;13.98;;;8.98;;
38457;SDS011;24239;48.058;10.486;2024-03-02T05:43:53;12.32;;;8.85;;
38457;SDS011;24239;48.058;10.486;2024-03-02T05:46:39;14.65;;;9.68;;
38457;SDS011;24239;48.058;10.486;2024-03-02T05:49:25;12.88;;;8.48;;
38457;SDS011;24239;48.058;10.486;2024-03-02T05:52:11;14.60;;;9.32;;
38457;SDS011;24239;48.058;10.486;2024-03-02T05:54:57;12.30;;;9.02;;
38457;SDS011;24239;48.058;10.486;2024-03-02T05:57:45;14.02;;;9.30;;
38457;SDS011;24239;48.058;10.486;2024-03-02T06:00:44;15.02;;;9.82;;
38457;SDS011;24239;48.058;10.486;2024-03-02T06:03:30;14.82;;;9.25;;
38457;SDS011;24239;48.058;10.486;2024-03-02T06:06:15;15.05;;;9.85;;
38457;SDS011;24239;48.058;10.486;2024-03-02T06:09:01;13.75;;;9.57;;
38457;SDS011;24239;48.058;10.486;2024-03-02T06:14:39;12.07;;;8.82;;
38457;SDS011;24239;48.058;10.486;2024-03-02T06:17:25;13.48;;;9.93;;
38457;SDS011;24239;48.058;10.486;2024-03-02T06:20:10;16.55;;;10.10;;
38457;SDS011;24239;48.058;10.486;2024-03-02T06:22:56;15.07;;;10.25;;
38457;SDS011;24239;48.058;10.486;2024-03-02T06:25:42;14.10;;;9.77;;
38457;SDS011;24239;48.058;10.486;2024-03-02T06:28:28;18.02;;;11.23;;
38457;SDS011;24239;48.058;10.486;2024-03-02T06:31:14;13.93;;;10.15;;
38457;SDS011;24239;48.058;10.486;2024-03-02T06:34:00;14.18;;;9.50;;
38457;SDS011;24239;48.058;10.486;2024-03-02T06:36:45;14.55;;;9.80;;
38457;SDS011;24239;48.058;10.486;2024-03-02T06:39:31;14.75;;;9.98;;
38457;SDS011;24239;48.058;10.486;2024-03-02T06:42:19;14.05;;;9.95;;
38457;SDS011;24239;48.058;10.486;2024-03-02T06:45:05;15.45;;;9.77;;
38457;SDS011;24239;48.058;10.486;2024-03-02T06:47:51;12.82;;;9.65;;
38457;SDS011;24239;48.058;10.486;2024-03-02T06:50:36;15.35;;;8.98;;
38457;SDS011;24239;48.058;10.486;2024-03-02T06:53:22;13.85;;;8.75;;
38457;SDS011;24239;48.058;10.486;2024-03-02T06:56:08;9.73;;;7.53;;
38457;SDS011;24239;48.058;10.486;2024-03-02T06:58:54;10.73;;;7.97;;
38457;SDS011;24239;48.058;10.486;2024-03-02T07:01:40;12.63;;;8.02;;
38457;SDS011;24239;48.058;10.486;2024-03-02T07:04:27;10.38;;;7.82;;
38457;SDS011;24239;48.058;10.486;2024-03-02T07:07:13;9.15;;;7.80;;
38457;SDS011;24239;48.058;10.486;2024-03-02T07:09:58;11.82;;;7.70;;
38457;SDS011;24239;48.058;10.486;2024-03-02T07:12:44;9.20;;;6.85;;
38457;SDS011;24239;48.058;10.486;2024-03-02T07:15:30;10.52;;;8.05;;
38457;SDS011;24239;48.058;10.486;2024-03-02T07:21:27;9.85;;;7.13;;
38457;SDS011;24239;48.058;10.486;2024-03-02T07:24:13;10.25;;;7.60;;
38457;SDS011;24239;48.058;10.486;2024-03-02T07:27:00;10.15;;;7.78;;
38457;SDS011;24239;48.058;10.486;2024-03-02T07:29:46;9.27;;;7.43;;
38457;SDS011;24239;48.058;10.486;2024-03-02T07:32:32;12.20;;;7.90;;
38457;SDS011;24239;48.058;10.486;2024-03-02T07:35:22;10.52;;;7.70;;
38457;SDS011;24239;48.058;10.486;2024-03-02T07:38:17;14.88;;;9.50;;
38457;SDS011;24239;48.058;10.486;2024-03-02T07:41:07;10.05;;;8.00;;
38457;SDS011;24239;48.058;10.486;2024-03-02T07:43:53;13.00;;;8.65;;
38457;SDS011;24239;48.058;10.486;2024-03-02T07:46:39;7.85;;;6.57;;
38457;SDS011;24239;48.058;10.486;2024-03-02T07:49:25;8.68;;;6.45;;
38457;SDS011;24239;48.058;10.486;2024-03-02T07:52:10;7.93;;;6.25;;
38457;SDS011;24239;48.058;10.486;2024-03-02T07:54:56;9.57;;;6.75;;
38457;SDS011;24239;48.058;10.486;2024-03-02T07:57:42;7.50;;;6.50;;
38457;SDS011;24239;48.058;10.486;2024-03-02T08:00:28;9.13;;;5.75;;
38457;SDS011;24239;48.058;10.486;2024-03-02T08:03:14;7.45;;;5.70;;
38457;SDS011;24239;48.058;10.486;2024-03-02T08:06:00;9.10;;;6.25;;
38457;SDS011;24239;48.058;10.486;2024-03-02T08:08:46;9.52;;;5.97;;
38457;SDS011;24239;48.058;10.486;2024-03-02T08:11:31;10.00;;;6.28;;
38457;SDS011;24239;48.058;10.486;2024-03-02T08:14:17;7.78;;;6.00;;
38457;SDS011;24239;48.058;10.486;2024-03-02T08:17:03;9.63;;;6.43;;
38457;SDS011;24239;48.058;10.486;2024-03-02T08:19:54;8.80;;;6.53;;
38457;SDS011;24239;48.058;10.486;2024-03-02T08:22:40;10.80;;;6.65;;
38457;SDS011;24239;48.058;10.486;2024-03-02T08:25:26;8.88;;;6.28;;
38457;SDS011;24239;48.058;10.486;2024-03-02T08:28:15;7.07;;;5.95;;
38457;SDS011;24239;48.058;10.486;2024-03-02T08:31:00;9.57;;;7.10;;
38457;SDS011;24239;48.058;10.486;2024-03-02T08:33:47;10.82;;;7.28;;
38457;SDS011;24239;48.058;10.486;2024-03-02T08:36:33;10.98;;;8.07;;
38457;SDS011;24239;48.058;10.486;2024-03-02T08:39:18;11.27;;;6.88;;
38457;SDS011;24239;48.058;10.486;2024-03-02T08:42:06;9.25;;;6.05;;
38457;SDS011;24239;48.058;10.486;2024-03-02T08:44:52;7.50;;;5.32;;
38457;SDS011;24239;48.058;10.486;2024-03-02T08:47:38;6.20;;;5.07;;
38457;SDS011;24239;48.058;10.486;2024-03-02T08:50:23;5.93;;;4.82;;
38457;SDS011;24239;48.058;10.486;2024-03-02T08:53:09;5.47;;;4.38;;
38457;SDS011;24239;48.058;10.486;2024-03-02T08:55:55;4.75;;;4.22;;
38457;SDS011;24239;48.058;10.486;2024-03-02T08:58:41;5.57;;;4.15;;
38457;SDS011;24239;48.058;10.486;2024-03-02T09:01:27;4.05;;;3.63;;
38457;SDS011;24239;48.058;10.486;2024-03-02T09:04:13;4.28;;;3.85;;
38457;SDS011;24239;48.058;10.486;2024-03-02T09:06:58;5.93;;;3.88;;
38457;SDS011;24239;48.058;10.486;2024-03-02T09:09:44;4.55;;;3.92;;
38457;SDS011;24239;48.058;10.486;2024-03-02T09:12:30;4.38;;;3.67;;
38457;SDS011;24239;48.058;10.486;2024-03-02T09:15:16;4.07;;;3.45;;
38457;SDS011;24239;48.058;10.486;2024-03-02T09:18:02;5.28;;;4.03;;
38457;SDS011;24239;48.058;10.486;2024-03-02T09:20:47;4.68;;;3.15;;
38457;SDS011;24239;48.058;10.486;2024-03-02T09:23:33;4.03;;;3.50;;
38457;SDS011;24239;48.058;10.486;2024-03-02T09:26:19;4.68;;;3.45;;
38457;SDS011;24239;48.058;10.486;2024-03-02T09:29:06;5.28;;;3.30;;
38457;SDS011;24239;48.058;10.486;2024-03-02T09:31:51;4.38;;;3.40;;
38457;SDS011;24239;48.058;10.486;2024-03-02T09:34:37;4.28;;;3.45;;
38457;SDS011;24239;48.058;10.486;2024-03-02T09:37:23;4.65;;;3.10;;
38457;SDS011;24239;48.058;10.486;2024-03-02T09:40:09;3.90;;;2.70;;
38457;SDS011;24239;48.058;10.486;2024-03-02T09:42:55;3.75;;;2.97;;
38457;SDS011;24239;48.058;10.486;2024-03-02T09:45:42;3.55;;;2.85;;
38457;SDS011;24239;48.058;10.486;2024-03-02T09:48:28;2.80;;;2.50;;
38457;SDS011;24239;48.058;10.486;2024-03-02T09:51:14;3.30;;;3.00;;
38457;SDS011;24239;48.058;10.486;2024-03-02T09:54:04;3.20;;;2.83;;
38457;SDS011;24239;48.058;10.486;2024-03-02T09:56:50;4.07;;;2.72;;
38457;SDS011;24239;48.058;10.486;2024-03-02T09:59:37;5.72;;;2.67;;
38457;SDS011;24239;48.058;10.486;2024-03-02T10:02:25;2.78;;;2.58;;
38457;SDS011;24239;48.058;10.486;2024-03-02T10:05:11;3.72;;;2.70;;
38457;SDS011;24239;48.058;10.486;2024-03-02T10:08:01;5.25;;;2.60;;
38457;SDS011;24239;48.058;10.486;2024-03-02T10:13:35;3.33;;;2.60;;
38457;SDS011;24239;48.058;10.486;2024-03-02T10:16:21;2.55;;;2.33;;
38457;SDS011;24239;48.058;10.486;2024-03-02T10:19:16;4.95;;;2.40;;
38457;SDS011;24239;48.058;10.486;2024-03-02T10:22:06;3.03;;;2.40;;
38457;SDS011;24239;48.058;10.486;2024-03-02T10:24:53;2.80;;;2.25;;
38457;SDS011;24239;48.058;10.486;2024-03-02T10:27:38;2.40;;;2.20;;
38457;SDS011;24239;48.058;10.486;2024-03-02T10:30:26;3.58;;;2.35;;
38457;SDS011;24239;48.058;10.486;2024-03-02T10:33:12;3.53;;;2.22;;
38457;SDS011;24239;48.058;10.486;2024-03-02T10:35:58;2.60;;;2.40;;
38457;SDS011;24239;48.058;10.486;2024-03-02T10:38:44;4.20;;;2.00;;
38457;SDS011;24239;48.058;10.486;2024-03-02T10:41:44;3.67;;;2.75;;
38457;SDS011;24239;48.058;10.486;2024-03-02T10:44:31;3.83;;;2.00;;
38457;SDS011;24239;48.058;10.486;2024-03-02T10:47:18;2.42;;;2.22;;
38457;SDS011;24239;48.058;10.486;2024-03-02T10:50:05;2.65;;;2.30;;
38457;SDS011;24239;48.058;10.486;2024-03-02T10:52:54;3.45;;;2.30;;
38457;SDS011;24239;48.058;10.486;2024-03-02T10:55:39;2.40;;;1.98;;
38457;SDS011;24239;48.058;10.486;2024-03-02T10:58:25;2.20;;;1.92;;
38457;SDS011;24239;48.058;10.486;2024-03-02T11:01:16;2.28;;;2.00;;
38457;SDS011;24239;48.058;10.486;2024-03-02T11:04:02;3.03;;;1.70;;
38457;SDS011;24239;48.058;10.486;2024-03-02T11:06:50;3.72;;;1.60;;
38457;SDS011;24239;48.058;10.486;2024-03-02T11:09:50;2.35;;;2.00;;
38457;SDS011;24239;48.058;10.486;2024-03-02T11:12:42;2.80;;;2.10;;
38457;SDS011;24239;48.058;10.486;2024-03-02T11:15:33;2.38;;;1.73;;
38457;SDS011;24239;48.058;10.486;2024-03-02T11:18:20;2.10;;;1.90;;
38457;SDS011;24239;48.058;10.486;2024-03-02T11:21:06;2.78;;;2.10;;
38457;SDS011;24239;48.058;10.486;2024-03-02T11:23:52;2.42;;;2.13;;
38457;SDS011;24239;48.058;10.486;2024-03-02T11:26:38;2.20;;;1.67;;
38457;SDS011;24239;48.058;10.486;2024-03-02T11:32:26;2.40;;;1.60;;
38457;SDS011;24239;48.058;10.486;2024-03-02T11:35:12;3.25;;;1.90;;
38457;SDS011;24239;48.058;10.486;2024-03-02T11:37:57;1.60;;;1.50;;
38457;SDS011;24239;48.058;10.486;2024-03-02T11:40:44;4.70;;;2.13;;
38457;SDS011;24239;48.058;10.486;2024-03-02T11:43:30;3.00;;;1.80;;
38457;SDS011;24239;48.058;10.486;2024-03-02T11:46:16;4.68;;;2.00;;
38457;SDS011;24239;48.058;10.486;2024-03-02T11:49:01;4.63;;;2.00;;
38457;SDS011;24239;48.058;10.486;2024-03-02T11:52:00;2.50;;;2.20;;
38457;SDS011;24239;48.058;10.486;2024-03-02T11:54:47;2.65;;;2.22;;
38457;SDS011;24239;48.058;10.486;2024-03-02T11:57:33;4.32;;;2.70;;
38457;SDS011;24239;48.058;10.486;2024-03-02T12:00:20;2.65;;;2.45;;
38457;SDS011;24239;48.058;10.486;2024-03-02T12:03:09;1.92;;;1.70;;
38457;SDS011;24239;48.058;10.486;2024-03-02T12:08:47;2.90;;;2.10;;
38457;SDS011;24239;48.058;10.486;2024-03-02T12:11:38;2.83;;;1.80;;
38457;SDS011;24239;48.058;10.486;2024-03-02T12:14:24;3.15;;;1.67;;
38457;SDS011;24239;48.058;10.486;2024-03-02T12:17:13;2.90;;;2.03;;
38457;SDS011;24239;48.058;10.486;2024-03-02T12:19:58;3.38;;;3.08;;
38457;SDS011;24239;48.058;10.486;2024-03-02T12:22:44;3.45;;;3.15;;
38457;SDS011;24239;48.058;10.486;2024-03-02T12:25:31;4.30;;;3.30;;
38457;SDS011;24239;48.058;10.486;2024-03-02T12:28:18;5.40;;;4.00;;
38457;SDS011;24239;48.058;10.486;2024-03-02T12:31:04;4.60;;;3.35;;
38457;SDS011;24239;48.058;10.486;2024-03-02T12:33:50;5.18;;;3.95;;
38457;SDS011;24239;48.058;10.486;2024-03-02T12:36:39;4.72;;;3.72;;
38457;SDS011;24239;48.058;10.486;2024-03-02T12:39:29;3.42;;;3.13;;
38457;SDS011;24239;48.058;10.486;2024-03-02T12:42:18;4.18;;;3.47;;
38457;SDS011;24239;48.058;10.486;2024-03-02T12:45:04;5.32;;;3.10;;
38457;SDS011;24239;48.058;10.486;2024-03-02T12:47:50;5.50;;;2.97;;
38457;SDS011;24239;48.058;10.486;2024-03-02T12:50:38;3.03;;;2.30;;
38457;SDS011;24239;48.058;10.486;2024-03-02T12:53:24;2.50;;;2.30;;
38457;SDS011;24239;48.058;10.486;2024-03-02T12:56:10;3.08;;;2.03;;
38457;SDS011;24239;48.058;10.486;2024-03-02T12:58:56;2.25;;;2.00;;
38457;SDS011;24239;48.058;10.486;2024-03-02T13:04:38;2.38;;;1.60;;
38457;SDS011;24239;48.058;10.486;2024-03-02T13:07:24;2.58;;;1.80;;
38457;SDS011;24239;48.058;10.486;2024-03-02T13:10:10;1.90;;;1.70;;
38457;SDS011;24239;48.058;10.486;2024-03-02T13:12:57;2.55;;;2.08;;
38457;SDS011;24239;48.058;10.486;2024-03-02T13:15:43;4.30;;;1.88;;
38457;SDS011;24239;48.058;10.486;2024-03-02T13:18:30;2.25;;;2.00;;
38457;SDS011;24239;48.058;10.486;2024-03-02T13:21:16;2.13;;;1.63;;
38457;SDS011;24239;48.058;10.486;2024-03-02T13:24:02;3.10;;;2.20;;
38457;SDS011;24239;48.058;10.486;2024-03-02T13:26:48;2.42;;;1.90;;
38457;SDS011;24239;48.058;10.486;2024-03-02T13:29:34;2.10;;;1.90;;
38457;SDS011;24239;48.058;10.486;2024-03-02T13:32:20;3.83;;;2.08;;
38457;SDS011;24239;48.058;10.486;2024-03-02T13:35:09;4.50;;;3.03;;
38457;SDS011;24239;48.058;10.486;2024-03-02T13:37:56;3.47;;;3.00;;
38457;SDS011;24239;48.058;10.486;2024-03-02T13:40:42;5.82;;;2.88;;
38457;SDS011;24239;48.058;10.486;2024-03-02T13:43:28;6.55;;;3.05;;
38457;SDS011;24239;48.058;10.486;2024-03-02T13:46:17;6.40;;;4.05;;
38457;SDS011;24239;48.058;10.486;2024-03-02T13:49:02;10.00;;;3.78;;
38457;SDS011;24239;48.058;10.486;2024-03-02T13:51:49;5.68;;;2.88;;
38457;SDS011;24239;48.058;10.486;2024-03-02T13:54:42;4.80;;;3.28;;
38457;SDS011;24239;48.058;10.486;2024-03-02T13:57:28;6.55;;;3.20;;
38457;SDS011;24239;48.058;10.486;2024-03-02T14:00:14;4.80;;;3.15;;
38457;SDS011;24239;48.058;10.486;2024-03-02T14:03:01;5.15;;;3.67;;
38457;SDS011;24239;48.058;10.486;2024-03-02T14:05:48;4.88;;;3.70;;
38457;SDS011;24239;48.058;10.486;2024-03-02T14:08:35;6.40;;;3.92;;
38457;SDS011;24239;48.058;10.486;2024-03-02T14:11:21;5.57;;;4.20;;
38457;SDS011;24239;48.058;10.486;2024-03-02T14:14:07;8.57;;;4.63;;
38457;SDS011;24239;48.058;10.486;2024-03-02T14:16:53;6.05;;;4.43;;
38457;SDS011;24239;48.058;10.486;2024-03-02T14:19:40;9.63;;;5.50;;
38457;SDS011;24239;48.058;10.486;2024-03-02T14:22:26;7.63;;;6.13;;
38457;SDS011;24239;48.058;10.486;2024-03-02T14:25:11;13.43;;;6.85;;
38457;SDS011;24239;48.058;10.486;2024-03-02T14:27:57;10.63;;;7.13;;
38457;SDS011;24239;48.058;10.486;2024-03-02T14:30:43;10.60;;;7.35;;
38457;SDS011;24239;48.058;10.486;2024-03-02T14:33:29;12.43;;;7.85;;
38457;SDS011;24239;48.058;10.486;2024-03-02T14:36:14;13.60;;;8.70;;
38457;SDS011;24239;48.058;10.486;2024-03-02T14:39:00;11.38;;;7.90;;
38457;SDS011;24239;48.058;10.486;2024-03-02T14:41:46;13.02;;;7.53;;
38457;SDS011;24239;48.058;10.486;2024-03-02T14:44:32;12.77;;;7.55;;
38457;SDS011;24239;48.058;10.486;2024-03-02T14:47:19;13.15;;;7.30;;
38457;SDS011;24239;48.058;10.486;2024-03-02T14:50:05;10.40;;;6.80;;
38457;SDS011;24239;48.058;10.486;2024-03-02T14:52:55;9.90;;;5.90;;
38457;SDS011;24239;48.058;10.486;2024-03-02T14:55:43;5.55;;;3.90;;
38457;SDS011;24239;48.058;10.486;2024-03-02T14:58:28;5.28;;;3.75;;
38457;SDS011;24239;48.058;10.486;2024-03-02T15:01:14;6.63;;;4.95;;
38457;SDS011;24239;48.058;10.486;2024-03-02T15:04:01;8.57;;;4.88;;
38457;SDS011;24239;48.058;10.486;2024-03-02T15:06:47;9.57;;;5.30;;
38457;SDS011;24239;48.058;10.486;2024-03-02T15:09:32;8.65;;;5.22;;
38457;SDS011;24239;48.058;10.486;2024-03-02T15:12:20;14.90;;;6.80;;
38457;SDS011;24239;48.058;10.486;2024-03-02T15:15:06;10.98;;;7.25;;
38457;SDS011;24239;48.058;10.486;2024-03-02T15:17:52;12.57;;;7.60;;
38457;SDS011;24239;48.058;10.486;2024-03-02T15:20:38;13.88;;;8.32;;
38457;SDS011;24239;48.058;10.486;2024-03-02T15:23:24;14.95;;;8.93;;
38457;SDS011;24239;48.058;10.486;2024-03-02T15:26:09;15.35;;;9.20;;
38457;SDS011;24239;48.058;10.486;2024-03-02T15:28:55;16.67;;;10.40;;
38457;SDS011;24239;48.058;10.486;2024-03-02T15:31:43;18.00;;;10.55;;
38457;SDS011;24239;48.058;10.486;2024-03-02T15:34:29;19.95;;;11.13;;
38457;SDS011;24239;48.058;10.486;2024-03-02T15:37:15;18.55;;;11.27;;
38457;SDS011;24239;48.058;10.486;2024-03-02T15:40:00;24.67;;;13.32;;
38457;SDS011;24239;48.058;10.486;2024-03-02T15:42:51;27.15;;;13.15;;
38457;SDS011;24239;48.058;10.486;2024-03-02T15:45:36;25.30;;;14.52;;
38457;SDS011;24239;48.058;10.486;2024-03-02T15:48:22;25.48;;;15.10;;
38457;SDS011;24239;48.058;10.486;2024-03-02T15:51:09;28.77;;;15.02;;
38457;SDS011;24239;48.058;10.486;2024-03-02T15:53:54;30.05;;;15.68;;
38457;SDS011;24239;48.058;10.486;2024-03-02T15:56:40;29.35;;;15.82;;
38457;SDS011;24239;48.058;10.486;2024-03-02T15:59:26;28.77;;;15.80;;
38457;SDS011;24239;48.058;10.486;2024-03-02T16:02:12;26.52;;;15.10;;
38457;SDS011;24239;48.058;10.486;2024-03-02T16:04:59;27.80;;;15.55;;
38457;SDS011;24239;48.058;10.486;2024-03-02T16:11:28;27.58;;;15.77;;
38457;SDS011;24239;48.058;10.486;2024-03-02T16:14:17;26.02;;;15.43;;
38457;SDS011;24239;48.058;10.486;2024-03-02T16:17:03;24.85;;;15.45;;
38457;SDS011;24239;48.058;10.486;2024-03-02T16:19:49;26.75;;;15.35;;
38457;SDS011;24239;48.058;10.486;2024-03-02T16:22:34;25.42;;;14.73;;
38457;SDS011;24239;48.058;10.486;2024-03-02T16:25:20;25.83;;;16.17;;
38457;SDS011;24239;48.058;10.486;2024-03-02T16:28:06;30.50;;;14.93;;
38457;SDS011;24239;48.058;10.486;2024-03-02T16:30:53;27.38;;;15.40;;
38457;SDS011;24239;48.058;10.486;2024-03-02T16:33:39;24.02;;;14.50;;
38457;SDS011;24239;48.058;10.486;2024-03-02T16:36:27;27.95;;;14.38;;
38457;SDS011;24239;48.058;10.486;2024-03-02T16:39:13;24.88;;;14.32;;
38457;SDS011;24239;48.058;10.486;2024-03-02T16:41:59;31.10;;;15.88;;
38457;SDS011;24239;48.058;10.486;2024-03-02T16:44:45;27.88;;;16.80;;
38457;SDS011;24239;48.058;10.486;2024-03-02T16:47:33;29.65;;;16.67;;